Terminal Aerodrome Forecast
Issued by NWS

Home | Current Version | Previous Version | Text Only | Print | Product List | Glossary On
Versions: 1 2 3 4 5 6 7 8 9 10 11 12 13 14 15 16 17 18 19 20 21 22 23 24 25 26
000
FTUS41 KOKX 172127 AAC
TAFSWF
TAF AMD
KSWF 172127Z 1721/1824 09006KT 2SM -RA BR BKN009 OVC020
     FM172300 08005KT 1SM -RA BR OVC003
     FM180700 01004KT 1SM -RA BR OVC003
     FM181300 34007KT 2SM -RA BR BKN004 OVC008
     FM181700 33007KT 3SM BR OVC010
      AMD NOT SKED=

USA.gov is the U.S. government's official web portal to all federal, state and local government web resources and services.